Time;durP1;ratioP1;P1;durP2;ratioP2;P2;SDS_P1;SDS_P2;PMS_P1;PMS_P2;Temp;Humidity;BMP_temperature;BMP_pressure;BME280_temperature;BME280_humidity;BME280_pressure;Samples;Min_cycle;Max_cycle;Signal;HPM_P1;HPM_P2
2022/08/30 00:03:13;;;;;;;2.92;1.33;;;15.00;86.80;;;;;;4895393;29;20061;-89
2022/08/30 00:05:40;;;;;;;4.65;1.60;;;15.10;86.60;;;;;;4896052;29;20033;-88
2022/08/30 00:08:06;;;;;;;3.08;1.38;;;15.10;86.50;;;;;;4904907;29;20064;-89
2022/08/30 00:10:32;;;;;;;4.43;1.60;;;15.20;86.20;;;;;;4901707;29;20120;-89
2022/08/30 00:12:58;;;;;;;3.63;1.52;;;15.20;86.20;;;;;;4900475;29;20033;-89
2022/08/30 00:15:25;;;;;;;4.47;1.35;;;15.20;86.30;;;;;;4904170;29;20477;-88
2022/08/30 00:17:50;;;;;;;3.28;1.35;;;15.20;86.40;;;;;;4893659;29;20036;-89
2022/08/30 00:20:21;;;;;;;2.65;1.20;;;15.20;86.20;;;;;;4896779;29;20397;-89
2022/08/30 00:22:47;;;;;;;3.10;1.42;;;15.30;86.00;;;;;;4892800;29;20059;-89
2022/08/30 00:25:13;;;;;;;2.65;1.48;;;15.20;86.20;;;;;;4901910;29;20049;-90
2022/08/30 00:27:39;;;;;;;2.35;1.10;;;15.30;85.90;;;;;;4901425;29;20080;-88
2022/08/30 00:30:06;;;;;;;4.85;1.25;;;15.30;86.00;;;;;;4886937;29;20032;-89
2022/08/30 00:32:32;;;;;;;3.22;1.30;;;15.30;85.90;;;;;;4906753;29;20123;-89
2022/08/30 00:34:57;;;;;;;7.03;1.70;;;15.30;85.80;;;;;;4899064;29;20071;-89
2022/08/30 00:37:23;;;;;;;2.65;1.10;;;15.30;85.90;;;;;;4898075;29;20044;-89
2022/08/30 00:39:49;;;;;;;3.90;1.48;;;15.30;85.50;;;;;;4891879;29;20044;-89
2022/08/30 00:42:17;;;;;;;4.03;1.23;;;15.30;85.60;;;;;;4888992;29;20123;-89
2022/08/30 00:44:43;;;;;;;3.60;1.40;;;15.30;85.60;;;;;;4902789;29;20040;-90
2022/08/30 00:47:09;;;;;;;4.68;1.50;;;15.30;85.20;;;;;;4904328;29;20792;-88
2022/08/30 00:49:38;;;;;;;2.28;1.35;;;15.30;85.60;;;;;;4903616;29;20040;-90
2022/08/30 00:52:06;;;;;;;3.50;1.55;;;15.30;85.60;;;;;;4901204;29;20028;-90
2022/08/30 00:54:34;;;;;;;3.05;1.30;;;15.30;85.70;;;;;;4896781;29;20540;-88
2022/08/30 00:57:01;;;;;;;3.08;1.17;;;15.20;85.80;;;;;;4896605;29;20443;-90
2022/08/30 00:59:27;;;;;;;1.35;0.90;;;15.10;86.10;;;;;;4896844;29;20092;-90
2022/08/30 01:01:53;;;;;;;1.65;1.00;;;15.20;85.90;;;;;;4894666;29;20068;-89
2022/08/30 01:04:24;;;;;;;4.60;1.33;;;15.20;85.90;;;;;;4896825;29;20041;-88
2022/08/30 01:06:50;;;;;;;2.65;1.30;;;15.10;86.00;;;;;;4896528;29;20036;-89
2022/08/30 01:09:16;;;;;;;3.72;1.30;;;15.20;86.10;;;;;;4894412;29;20040;-88
2022/08/30 01:11:43;;;;;;;2.33;1.05;;;15.10;85.80;;;;;;4888882;29;20518;-86
2022/08/30 01:14:13;;;;;;;4.80;1.33;;;15.20;86.10;;;;;;4897685;29;20032;-89
2022/08/30 01:16:42;;;;;;;5.38;1.15;;;15.20;86.00;;;;;;4888018;29;20063;-89
2022/08/30 01:19:37;;;;;;;5.38;1.35;;;15.20;86.20;;;;;;4893823;29;20056;-90
2022/08/30 01:22:17;;;;;;;2.70;1.27;;;15.10;86.10;;;;;;4892951;29;20457;-88
2022/08/30 01:24:46;;;;;;;4.65;1.33;;;15.10;86.10;;;;;;4888831;29;20060;-86
2022/08/30 01:27:14;;;;;;;2.78;1.10;;;15.10;85.90;;;;;;4898419;29;20550;-89
2022/08/30 01:29:39;;;;;;;3.50;1.13;;;15.10;86.00;;;;;;4898012;29;20123;-88
2022/08/30 01:32:05;;;;;;;2.95;1.10;;;15.10;86.10;;;;;;4887636;29;20064;-89
2022/08/30 01:34:30;;;;;;;3.35;1.05;;;15.10;86.10;;;;;;4882988;29;20025;-88
2022/08/30 01:36:56;;;;;;;2.20;1.20;;;15.10;86.20;;;;;;4892741;29;20504;-89
2022/08/30 01:39:22;;;;;;;3.67;1.27;;;15.10;85.90;;;;;;4897132;29;20164;-89
2022/08/30 01:41:47;;;;;;;3.38;1.35;;;15.10;86.20;;;;;;4904462;29;20036;-89
2022/08/30 01:44:13;;;;;;;4.47;1.20;;;15.20;86.40;;;;;;4897419;29;20037;-88
2022/08/30 01:46:46;;;;;;;2.83;1.25;;;15.10;86.20;;;;;;4897032;29;20096;-87
2022/08/30 01:49:14;;;;;;;3.20;1.20;;;15.10;86.30;;;;;;4893935;29;20568;-89
2022/08/30 01:51:39;;;;;;;4.72;1.35;;;15.10;86.40;;;;;;4897091;29;20044;-86
2022/08/30 01:54:05;;;;;;;2.47;1.10;;;15.10;86.40;;;;;;4895977;29;20469;-89
2022/08/30 01:56:31;;;;;;;4.38;1.20;;;15.10;86.30;;;;;;4896509;29;20041;-88
2022/08/30 01:58:57;;;;;;;1.38;0.90;;;15.10;86.30;;;;;;4893684;29;20033;-88
2022/08/30 02:01:25;;;;;;;6.03;1.40;;;15.10;86.60;;;;;;4900160;29;20037;-89
2022/08/30 02:03:53;;;;;;;4.40;1.00;;;15.20;86.50;;;;;;4899091;29;20123;-89
2022/08/30 02:06:20;;;;;;;3.53;1.42;;;15.10;86.40;;;;;;4905923;29;20039;-89
2022/08/30 02:08:46;;;;;;;7.35;1.08;;;15.20;86.50;;;;;;4896076;29;20036;-90
2022/08/30 02:11:12;;;;;;;4.40;1.00;;;15.20;86.30;;;;;;4898586;29;20029;-90
2022/08/30 02:13:40;;;;;;;2.90;1.10;;;15.20;86.40;;;;;;4896633;29;20135;-91
2022/08/30 02:16:09;;;;;;;2.63;1.27;;;15.10;86.10;;;;;;4898365;29;20033;-89
2022/08/30 02:18:38;;;;;;;3.67;0.95;;;15.20;86.10;;;;;;4890348;29;20035;-89
2022/08/30 02:21:03;;;;;;;3.28;1.00;;;15.20;86.20;;;;;;4894832;29;20036;-89
2022/08/30 02:23:29;;;;;;;3.10;1.17;;;15.20;85.80;;;;;;4894613;29;20166;-90
2022/08/30 02:25:55;;;;;;;3.15;1.33;;;15.20;85.80;;;;;;4898992;29;20037;-89
2022/08/30 02:28:21;;;;;;;2.90;1.13;;;15.20;86.20;;;;;;4895851;29;20036;-89
2022/08/30 02:30:47;;;;;;;3.17;1.05;;;15.20;86.10;;;;;;4897647;29;20040;-90
2022/08/30 02:33:13;;;;;;;3.63;0.93;;;15.20;85.80;;;;;;4892205;29;20060;-89
2022/08/30 02:35:38;;;;;;;6.05;1.40;;;15.20;86.10;;;;;;4895739;29;20064;-89
2022/08/30 02:38:04;;;;;;;4.38;1.20;;;15.20;85.90;;;;;;4897487;29;20035;-90
2022/08/30 02:40:30;;;;;;;1.45;0.95;;;15.20;85.80;;;;;;4895153;29;20119;-90
2022/08/30 02:42:55;;;;;;;3.75;1.20;;;15.20;85.40;;;;;;4897940;29;20047;-90
2022/08/30 02:45:22;;;;;;;1.23;0.90;;;15.30;85.40;;;;;;4894670;29;20052;-90
2022/08/30 02:47:48;;;;;;;5.70;1.38;;;15.20;85.60;;;;;;4888108;29;20032;-90
2022/08/30 02:50:14;;;;;;;3.60;1.23;;;15.20;85.60;;;;;;4892748;29;20033;-89
2022/08/30 02:52:40;;;;;;;8.02;1.30;;;15.20;85.70;;;;;;4894922;29;20108;-89
2022/08/30 02:55:07;;;;;;;1.85;0.98;;;15.20;85.20;;;;;;4889635;29;20196;-90
2022/08/30 02:57:32;;;;;;;4.68;1.23;;;15.20;85.40;;;;;;4889004;29;20028;-88
2022/08/30 02:59:58;;;;;;;4.25;1.08;;;15.20;85.60;;;;;;4888753;29;20374;-89
2022/08/30 03:02:24;;;;;;;6.88;1.40;;;15.30;85.60;;;;;;4897265;29;20567;-89
2022/08/30 03:04:50;;;;;;;2.50;1.33;;;15.20;85.60;;;;;;4894376;29;20048;-89
2022/08/30 03:07:16;;;;;;;2.78;1.15;;;15.30;85.60;;;;;;4897503;29;20472;-90
2022/08/30 03:09:42;;;;;;;2.83;1.02;;;15.30;85.90;;;;;;4894107;29;20037;-90
2022/08/30 03:12:08;;;;;;;2.60;1.10;;;15.20;86.30;;;;;;4887417;29;20065;-89
2022/08/30 03:14:35;;;;;;;2.45;0.93;;;15.20;86.20;;;;;;4895387;29;20053;-90
2022/08/30 03:17:04;;;;;;;1.90;1.10;;;15.20;86.00;;;;;;4885806;29;20388;-90
2022/08/30 03:19:29;;;;;;;3.92;0.90;;;15.20;86.00;;;;;;4893704;29;20731;-88
2022/08/30 03:21:55;;;;;;;2.90;1.20;;;15.10;85.90;;;;;;4902887;29;20099;-89
2022/08/30 03:24:20;;;;;;;1.80;1.10;;;15.20;86.10;;;;;;4895834;29;20064;-90
2022/08/30 03:26:46;;;;;;;3.20;1.30;;;15.10;85.90;;;;;;4904755;29;20029;-90
2022/08/30 03:29:11;;;;;;;2.53;1.00;;;15.20;86.00;;;;;;4885068;29;20041;-90
2022/08/30 03:31:37;;;;;;;2.97;1.10;;;15.20;86.10;;;;;;4897063;29;20035;-89
2022/08/30 03:34:04;;;;;;;1.48;0.80;;;15.10;85.90;;;;;;4897217;29;20427;-89
2022/08/30 03:36:30;;;;;;;3.95;1.40;;;15.10;86.00;;;;;;4894199;29;20036;-89
2022/08/30 03:38:55;;;;;;;4.88;1.10;;;15.10;86.10;;;;;;4893719;29;20036;-90
2022/08/30 03:41:21;;;;;;;4.18;1.05;;;15.10;86.10;;;;;;4897322;29;20036;-89
2022/08/30 03:43:46;;;;;;;1.73;0.90;;;15.10;86.10;;;;;;4897939;29;20032;-89
2022/08/30 03:46:13;;;;;;;2.42;1.10;;;15.10;86.30;;;;;;4897411;29;20111;-88
2022/08/30 03:48:38;;;;;;;3.38;1.15;;;15.10;86.30;;;;;;4891373;29;20047;-88
2022/08/30 03:51:04;;;;;;;2.22;1.00;;;15.00;86.30;;;;;;4890634;29;20426;-89
2022/08/30 03:53:30;;;;;;;1.75;0.77;;;15.10;86.30;;;;;;4888783;29;20025;-89
2022/08/30 03:55:55;;;;;;;2.33;1.20;;;15.10;86.20;;;;;;4890204;29;20029;-89
2022/08/30 03:58:21;;;;;;;2.28;1.10;;;15.00;86.00;;;;;;4885829;29;20021;-90
2022/08/30 04:00:47;;;;;;;1.80;0.93;;;15.00;86.20;;;;;;4887183;29;20044;-89
2022/08/30 04:03:12;;;;;;;1.33;0.90;;;15.00;86.40;;;;;;4897024;29;20607;-88
2022/08/30 04:05:38;;;;;;;5.00;1.27;;;15.00;86.20;;;;;;4889468;29;20060;-87
2022/08/30 04:08:03;;;;;;;3.00;0.77;;;15.00;86.20;;;;;;4888799;29;20033;-87
2022/08/30 04:10:29;;;;;;;3.97;1.15;;;15.00;86.20;;;;;;4889883;29;20041;-86
2022/08/30 04:12:55;;;;;;;2.95;1.20;;;15.00;86.30;;;;;;4893414;29;20031;-87
2022/08/30 04:15:21;;;;;;;4.28;1.33;;;15.00;86.30;;;;;;4882340;29;20124;-88
2022/08/30 04:17:47;;;;;;;2.10;1.00;;;15.00;86.20;;;;;;4902381;29;20032;-85
2022/08/30 04:20:13;;;;;;;3.20;1.30;;;15.00;86.30;;;;;;4883969;29;20156;-85
2022/08/30 04:22:38;;;;;;;3.70;1.20;;;15.00;86.30;;;;;;4891694;29;20051;-85
2022/08/30 04:25:05;;;;;;;2.95;1.20;;;15.00;86.40;;;;;;4894161;29;20036;-86
2022/08/30 04:27:31;;;;;;;2.75;1.30;;;15.00;86.30;;;;;;4886561;29;20028;-85
2022/08/30 04:29:58;;;;;;;3.63;1.17;;;15.00;86.50;;;;;;4886151;29;20029;-85
2022/08/30 04:32:24;;;;;;;3.13;1.27;;;15.10;86.30;;;;;;4894746;29;20031;-85
2022/08/30 04:34:49;;;;;;;3.75;1.00;;;15.00;86.50;;;;;;4883723;29;20430;-85
2022/08/30 04:37:15;;;;;;;3.67;1.38;;;15.10;86.40;;;;;;4889379;29;20099;-85
2022/08/30 04:39:42;;;;;;;3.17;1.05;;;15.10;86.50;;;;;;4884198;29;20059;-86
2022/08/30 04:42:09;;;;;;;5.38;1.42;;;15.10;86.40;;;;;;4892456;29;20096;-86
2022/08/30 04:44:35;;;;;;;2.38;1.00;;;15.10;86.40;;;;;;4882802;29;20173;-86
2022/08/30 04:47:01;;;;;;;1.85;0.90;;;15.20;86.30;;;;;;4888973;29;20264;-85
2022/08/30 04:49:27;;;;;;;3.08;1.10;;;15.20;86.20;;;;;;4892060;29;20051;-85
2022/08/30 04:51:53;;;;;;;4.22;1.15;;;15.20;86.30;;;;;;4886857;29;20369;-84
2022/08/30 04:54:18;;;;;;;3.30;0.98;;;15.20;86.30;;;;;;4895814;29;20037;-85
2022/08/30 04:56:44;;;;;;;1.85;0.88;;;15.10;86.30;;;;;;4897446;29;20135;-86
2022/08/30 04:59:09;;;;;;;3.63;1.13;;;15.20;86.30;;;;;;4908477;29;20052;-85
2022/08/30 05:01:35;;;;;;;1.75;0.95;;;15.20;86.20;;;;;;4895653;29;20068;-85
2022/08/30 05:04:00;;;;;;;1.92;1.10;;;15.20;86.50;;;;;;4898307;29;20484;-85
2022/08/30 05:06:29;;;;;;;2.70;1.30;;;15.20;86.80;;;;;;4892047;29;20037;-85
2022/08/30 05:08:55;;;;;;;3.47;1.33;;;15.20;86.60;;;;;;4892640;29;20035;-85
2022/08/30 05:11:21;;;;;;;3.22;1.40;;;15.10;86.90;;;;;;4887358;29;20032;-85
2022/08/30 05:13:48;;;;;;;2.72;1.00;;;15.20;87.10;;;;;;4891264;29;20029;-85
2022/08/30 05:16:16;;;;;;;3.15;1.15;;;15.20;86.90;;;;;;4896602;29;20190;-85
2022/08/30 05:18:43;;;;;;;2.00;1.00;;;15.20;86.70;;;;;;4897029;29;20064;-85
2022/08/30 05:21:21;;;;;;;2.90;1.20;;;15.20;86.70;;;;;;4879715;29;20393;-85
2022/08/30 05:23:48;;;;;;;3.58;1.15;;;15.30;86.80;;;;;;4896211;29;20036;-84
2022/08/30 05:26:18;;;;;;;3.05;1.10;;;15.30;86.80;;;;;;4888850;29;20076;-85
2022/08/30 05:28:44;;;;;;;4.30;1.25;;;15.30;86.60;;;;;;4887106;29;20033;-86
2022/08/30 05:31:28;;;;;;;3.42;1.15;;;15.30;86.30;;;;;;4895127;29;20056;-85
2022/08/30 05:33:54;;;;;;;2.05;1.00;;;15.30;86.20;;;;;;4889927;29;20044;-85
2022/08/30 05:36:23;;;;;;;4.78;1.30;;;15.40;85.90;;;;;;4897742;29;20025;-85
2022/08/30 05:38:49;;;;;;;3.22;1.00;;;15.40;85.90;;;;;;4894009;29;20566;-84
2022/08/30 05:41:17;;;;;;;2.90;1.30;;;15.50;86.00;;;;;;4892901;29;20032;-85
2022/08/30 05:43:43;;;;;;;2.90;1.30;;;15.50;85.90;;;;;;4909360;29;20036;-85
2022/08/30 05:46:12;;;;;;;3.95;1.33;;;15.60;85.90;;;;;;4893710;29;20078;-84
2022/08/30 05:48:38;;;;;;;1.48;1.10;;;15.60;85.80;;;;;;4892509;29;20035;-85
2022/08/30 05:51:07;;;;;;;2.22;1.13;;;15.60;85.80;;;;;;4893989;29;20039;-86
2022/08/30 05:53:33;;;;;;;2.25;1.08;;;15.60;85.70;;;;;;4895648;29;20039;-86
2022/08/30 05:56:00;;;;;;;2.83;1.15;;;15.60;86.40;;;;;;4894724;29;20481;-84
2022/08/30 05:58:26;;;;;;;2.83;1.50;;;15.60;86.60;;;;;;4890163;29;20111;-86
2022/08/30 06:00:51;;;;;;;9.98;1.55;;;15.60;87.50;;;;;;4891342;29;20132;-86
2022/08/30 06:03:17;;;;;;;2.55;1.20;;;15.60;87.40;;;;;;4901265;29;20066;-85
2022/08/30 06:05:42;;;;;;;1.73;1.15;;;15.60;87.90;;;;;;4884911;29;20037;-85
2022/08/30 06:08:08;;;;;;;5.65;1.30;;;15.50;87.60;;;;;;4889673;29;20036;-85
2022/08/30 06:10:33;;;;;;;1.67;1.15;;;15.60;88.20;;;;;;4898052;29;20454;-86
2022/08/30 06:12:59;;;;;;;4.40;1.48;;;15.70;88.40;;;;;;4899048;29;20036;-86
2022/08/30 06:15:24;;;;;;;3.90;1.15;;;15.80;87.80;;;;;;4896302;29;20119;-86
2022/08/30 06:17:50;;;;;;;3.08;1.20;;;15.70;87.40;;;;;;4896794;29;20084;-85
2022/08/30 06:20:17;;;;;;;2.97;1.20;;;15.80;87.80;;;;;;4888370;29;20044;-85
2022/08/30 06:22:43;;;;;;;2.17;1.20;;;16.00;87.80;;;;;;4886880;29;20032;-84
2022/08/30 06:25:09;;;;;;;4.72;1.30;;;16.10;87.20;;;;;;4889294;29;20743;-85
2022/08/30 06:27:34;;;;;;;4.20;1.40;;;16.20;87.20;;;;;;4890868;29;20028;-85
2022/08/30 06:30:00;;;;;;;3.22;1.23;;;16.30;87.00;;;;;;4887326;29;20037;-86
2022/08/30 06:32:25;;;;;;;1.98;0.90;;;16.40;86.70;;;;;;4891642;29;20035;-85
2022/08/30 06:34:51;;;;;;;2.92;1.05;;;16.60;86.10;;;;;;4897082;29;20025;-85
2022/08/30 06:37:16;;;;;;;3.30;1.20;;;16.70;86.00;;;;;;4894172;29;20021;-85
2022/08/30 06:39:42;;;;;;;2.47;1.02;;;16.80;85.40;;;;;;4884705;29;20482;-85
2022/08/30 06:42:07;;;;;;;5.68;1.02;;;17.00;84.70;;;;;;4892481;29;20053;-85
2022/08/30 06:44:33;;;;;;;2.63;0.98;;;17.10;84.60;;;;;;4897307;29;20076;-85
2022/08/30 06:46:58;;;;;;;2.40;1.13;;;17.10;84.30;;;;;;4883997;29;20846;-85
2022/08/30 06:49:24;;;;;;;3.55;1.20;;;17.20;83.30;;;;;;4894520;29;20047;-85
2022/08/30 06:51:50;;;;;;;4.80;1.10;;;17.20;83.70;;;;;;4889942;29;20032;-84
2022/08/30 06:54:16;;;;;;;3.20;0.90;;;17.30;83.50;;;;;;4895903;29;20028;-85
2022/08/30 06:56:41;;;;;;;3.13;1.00;;;17.50;83.50;;;;;;4884783;29;20025;-86
2022/08/30 06:59:07;;;;;;;2.65;1.08;;;17.50;82.70;;;;;;4884567;29;20115;-84
2022/08/30 07:01:32;;;;;;;3.03;1.20;;;17.60;83.00;;;;;;4890543;29;20080;-85
2022/08/30 07:03:59;;;;;;;4.55;1.25;;;17.80;82.00;;;;;;4893899;29;20037;-86
2022/08/30 07:06:26;;;;;;;4.03;1.42;;;17.90;82.00;;;;;;4891699;29;20058;-85
2022/08/30 07:08:52;;;;;;;3.70;1.20;;;18.00;81.20;;;;;;4894292;29;20056;-84
2022/08/30 07:11:26;;;;;;;2.65;1.10;;;18.30;80.90;;;;;;4884600;29;20049;-85
2022/08/30 07:13:51;;;;;;;2.45;1.02;;;18.50;80.40;;;;;;4907907;29;20024;-85
2022/08/30 07:16:17;;;;;;;2.60;1.02;;;18.40;79.10;;;;;;4896525;29;20099;-85
2022/08/30 07:18:53;;;;;;;6.05;1.20;;;18.50;79.10;;;;;;4903081;29;20036;-85
2022/08/30 07:21:28;;;;;;;3.47;1.33;;;18.50;78.80;;;;;;4880399;29;20041;-85
2022/08/30 07:23:57;;;;;;;4.88;1.20;;;18.50;78.80;;;;;;4877200;29;20040;-85
2022/08/30 07:26:30;;;;;;;3.08;1.35;;;18.50;79.00;;;;;;4876334;29;20075;-84
2022/08/30 07:28:56;;;;;;;4.53;1.70;;;18.50;79.50;;;;;;4886790;29;20032;-85
2022/08/30 07:31:22;;;;;;;2.88;1.30;;;18.50;78.80;;;;;;4886505;29;20485;-85
2022/08/30 07:33:48;;;;;;;2.72;1.20;;;18.60;79.40;;;;;;4888812;29;20041;-86
2022/08/30 07:36:16;;;;;;;4.05;1.30;;;18.60;79.10;;;;;;4876729;29;20032;-85
2022/08/30 07:38:43;;;;;;;2.72;1.35;;;18.70;78.80;;;;;;4891544;29;20439;-84
2022/08/30 07:41:14;;;;;;;4.45;1.38;;;18.80;78.60;;;;;;4881842;29;20044;-84
2022/08/30 07:43:40;;;;;;;1.80;1.05;;;18.80;78.90;;;;;;4882991;29;20029;-85
2022/08/30 07:46:07;;;;;;;4.13;1.20;;;18.80;78.00;;;;;;4893744;29;20370;-85
2022/08/30 07:48:34;;;;;;;3.42;1.13;;;18.80;78.30;;;;;;4892913;29;20551;-85
2022/08/30 07:51:00;;;;;;;4.97;1.33;;;18.80;78.30;;;;;;4891772;29;20055;-85
2022/08/30 07:53:26;;;;;;;4.30;1.17;;;18.80;78.60;;;;;;4894602;29;20025;-85
2022/08/30 07:55:51;;;;;;;5.47;1.20;;;18.80;78.50;;;;;;4889475;29;20037;-85
2022/08/30 07:58:17;;;;;;;6.28;1.10;;;18.90;79.00;;;;;;4879258;29;20089;-85
2022/08/30 08:00:42;;;;;;;6.53;1.60;;;19.00;78.60;;;;;;4893484;29;20056;-85
2022/08/30 08:03:09;;;;;;;4.65;1.40;;;19.20;78.20;;;;;;4894623;29;20112;-85
2022/08/30 08:05:43;;;;;;;4.40;1.17;;;19.30;78.30;;;;;;4888755;29;20128;-85
2022/08/30 08:08:10;;;;;;;2.67;1.15;;;19.50;77.80;;;;;;4887579;29;20033;-85
2022/08/30 08:10:37;;;;;;;4.80;1.35;;;19.50;77.70;;;;;;4894399;29;20029;-84
2022/08/30 08:13:04;;;;;;;3.95;1.23;;;19.20;76.70;;;;;;4891580;29;20025;-84
2022/08/30 08:15:29;;;;;;;4.32;1.42;;;19.30;77.20;;;;;;4882090;29;20037;-85
2022/08/30 08:17:55;;;;;;;6.95;1.27;;;19.30;77.10;;;;;;4880711;29;20071;-85
2022/08/30 08:20:21;;;;;;;4.30;1.20;;;19.30;76.30;;;;;;4894284;29;20128;-85
2022/08/30 08:22:47;;;;;;;6.20;1.33;;;19.10;77.20;;;;;;4891314;29;20039;-85
2022/08/30 08:25:13;;;;;;;3.03;1.17;;;19.00;77.90;;;;;;4893536;29;20145;-85
2022/08/30 08:27:39;;;;;;;5.03;1.30;;;19.20;77.20;;;;;;4895257;29;20048;-85
2022/08/30 08:30:06;;;;;;;2.22;0.98;;;19.50;77.20;;;;;;4894553;29;20043;-85
2022/08/30 08:32:31;;;;;;;4.07;1.08;;;19.60;77.60;;;;;;4879044;29;20067;-85
2022/08/30 08:34:57;;;;;;;5.07;1.35;;;19.50;76.20;;;;;;4877466;29;20462;-85
2022/08/30 08:37:23;;;;;;;3.58;1.23;;;19.50;77.00;;;;;;4889696;29;20107;-86
2022/08/30 08:39:51;;;;;;;1.77;1.00;;;19.70;77.00;;;;;;4893653;29;20044;-85
2022/08/30 08:42:46;;;;;;;8.50;1.50;;;19.70;77.10;;;;;;4900235;29;20558;-85
2022/08/30 08:45:18;;;;;;;2.92;1.45;;;19.90;76.50;;;;;;4897729;29;20143;-85
2022/08/30 08:47:58;;;;;;;3.60;1.30;;;19.80;76.20;;;;;;4885350;29;20048;-85
2022/08/30 08:50:24;;;;;;;3.47;1.17;;;20.00;76.00;;;;;;4891352;29;20029;-85
2022/08/30 08:55:47;;;;;;;4.47;1.05;;;20.30;75.60;;;;;;4898924;29;20084;-85
2022/08/30 08:58:29;;;;;;;3.83;1.10;;;20.30;75.70;;;;;;4886780;29;20032;-85
2022/08/30 09:00:56;;;;;;;2.58;0.93;;;20.20;75.10;;;;;;4882310;29;20337;-85
2022/08/30 09:03:25;;;;;;;4.55;1.15;;;20.20;75.60;;;;;;4894027;29;20037;-85
2022/08/30 09:05:52;;;;;;;2.95;1.02;;;20.30;75.80;;;;;;4886530;29;20041;-86
2022/08/30 09:08:20;;;;;;;3.90;1.23;;;20.40;76.50;;;;;;4891248;29;20025;-86
2022/08/30 09:11:12;;;;;;;5.28;1.10;;;20.20;75.90;;;;;;4881993;29;20587;-85
2022/08/30 09:13:37;;;;;;;4.55;1.20;;;20.20;75.30;;;;;;4894193;29;20051;-84
2022/08/30 09:16:04;;;;;;;5.15;1.23;;;20.00;75.90;;;;;;4890522;29;20048;-85
2022/08/30 09:18:44;;;;;;;6.22;1.20;;;19.90;76.20;;;;;;4898437;29;20020;-85
2022/08/30 09:21:11;;;;;;;3.03;1.10;;;19.90;76.30;;;;;;4895617;29;20035;-85
2022/08/30 09:23:45;;;;;;;2.63;0.90;;;20.00;76.00;;;;;;4891069;29;20029;-85
2022/08/30 09:26:12;;;;;;;2.78;0.85;;;20.10;76.00;;;;;;4889695;29;20021;-85
2022/08/30 09:28:49;;;;;;;4.47;1.20;;;20.30;75.60;;;;;;4884301;29;20028;-85
2022/08/30 09:31:19;;;;;;;3.05;0.85;;;20.40;75.10;;;;;;4888047;29;20021;-85
2022/08/30 09:34:02;;;;;;;5.03;1.35;;;20.50;74.30;;;;;;4893085;29;20029;-85
2022/08/30 09:36:52;;;;;;;4.38;1.55;;;20.80;73.50;;;;;;4897456;29;20505;-85
2022/08/30 09:39:27;;;;;;;3.20;1.08;;;20.80;73.20;;;;;;4894133;29;20051;-85
2022/08/30 09:41:52;;;;;;;1.55;0.80;;;21.20;71.30;;;;;;4895957;29;20040;-85
2022/08/30 09:44:30;;;;;;;3.95;0.85;;;21.30;72.40;;;;;;4886691;29;20029;-85
2022/08/30 09:46:57;;;;;;;4.03;0.95;;;21.50;71.60;;;;;;4883152;29;20029;-85
2022/08/30 09:49:41;;;;;;;1.73;0.82;;;21.70;68.70;;;;;;4888700;29;20044;-85
2022/08/30 09:52:26;;;;;;;2.13;0.82;;;21.50;69.50;;;;;;4896787;29;20055;-85
2022/08/30 09:55:05;;;;;;;2.50;0.80;;;21.70;68.60;;;;;;4890838;29;20033;-84
2022/08/30 09:57:57;;;;;;;3.00;0.90;;;22.20;69.00;;;;;;4897092;29;20395;-85
2022/08/30 10:00:30;;;;;;;5.80;1.27;;;22.90;65.90;;;;;;4848422;29;20485;-85
2022/08/30 10:03:31;;;;;;;1.27;0.65;;;22.70;66.10;;;;;;4897415;29;20033;-85
2022/08/30 10:06:25;;;;;;;3.17;0.80;;;22.40;65.40;;;;;;4890165;29;20032;-84
2022/08/30 10:09:16;;;;;;;1.33;0.85;;;22.00;67.00;;;;;;4894981;29;20112;-85
2022/08/30 10:11:58;;;;;;;2.25;0.80;;;21.90;67.10;;;;;;4890998;29;20037;-85
2022/08/30 10:14:49;;;;;;;2.35;0.70;;;22.70;66.60;;;;;;4878414;29;20104;-85
2022/08/30 10:17:43;;;;;;;2.50;0.90;;;22.40;66.30;;;;;;4907543;29;20024;-84
2022/08/30 10:20:42;;;;;;;1.38;0.60;;;22.60;66.00;;;;;;4880761;29;20111;-85
2022/08/30 10:23:23;;;;;;;2.60;0.50;;;22.60;65.90;;;;;;4889264;29;20033;-84
2022/08/30 10:26:13;;;;;;;2.20;0.68;;;22.90;64.70;;;;;;4895785;29;20048;-85
2022/08/30 10:29:18;;;;;;;1.63;0.55;;;22.60;64.10;;;;;;4892959;29;20045;-85
2022/08/30 10:31:51;;;;;;;1.40;0.43;;;22.40;65.30;;;;;;4879544;29;20041;-86
2022/08/30 10:34:39;;;;;;;2.85;0.50;;;22.50;65.60;;;;;;4877844;29;20086;-86
2022/08/30 10:37:13;;;;;;;1.17;0.47;;;22.70;64.20;;;;;;4896308;29;20021;-85
2022/08/30 10:39:46;;;;;;;0.82;0.50;;;22.90;64.00;;;;;;4893801;29;20052;-85
2022/08/30 10:42:17;;;;;;;2.80;0.60;;;22.70;64.00;;;;;;4892915;29;20052;-85
2022/08/30 10:44:48;;;;;;;3.10;0.50;;;23.20;63.90;;;;;;4892722;29;20528;-86
2022/08/30 10:47:23;;;;;;;1.67;0.50;;;23.20;63.30;;;;;;4887749;29;20035;-85
2022/08/30 10:49:53;;;;;;;2.70;0.60;;;23.00;63.50;;;;;;4894137;29;20294;-86
2022/08/30 10:52:28;;;;;;;0.65;0.40;;;23.00;63.30;;;;;;4895603;29;20044;-86
2022/08/30 10:55:03;;;;;;;0.73;0.30;;;22.70;63.60;;;;;;4894972;29;20043;-85
2022/08/30 10:57:28;;;;;;;0.80;0.50;;;22.50;64.70;;;;;;4889560;29;20111;-85
2022/08/30 11:00:21;;;;;;;1.27;0.40;;;22.50;63.70;;;;;;4905079;29;20060;-85
2022/08/30 11:03:28;;;;;;;1.02;0.40;;;22.90;62.20;;;;;;4881577;29;20488;-83
2022/08/30 11:06:10;;;;;;;1.00;0.40;;;23.40;62.50;;;;;;4875636;29;20029;-83
2022/08/30 11:08:43;;;;;;;2.13;0.50;;;24.60;57.40;;;;;;4877581;29;20036;-82
2022/08/30 11:11:54;;;;;;;1.92;0.52;;;24.90;58.80;;;;;;4878371;29;20040;-83
2022/08/30 11:14:20;;;;;;;4.38;0.50;;;24.20;56.40;;;;;;4887325;29;20372;-83
2022/08/30 11:16:49;;;;;;;0.90;0.28;;;24.20;58.30;;;;;;4879385;29;20032;-83
2022/08/30 11:19:25;;;;;;;0.95;0.50;;;23.80;58.80;;;;;;4889072;29;20446;-85
2022/08/30 11:22:06;;;;;;;0.98;0.50;;;23.60;59.90;;;;;;4879512;29;20033;-86
2022/08/30 11:25:04;;;;;;;2.42;0.38;;;23.50;59.50;;;;;;4895354;29;20043;-85
2022/08/30 11:27:53;;;;;;;1.15;0.50;;;23.10;60.80;;;;;;4894357;29;20103;-86
2022/08/30 11:30:24;;;;;;;1.17;0.75;;;23.00;61.60;;;;;;4876516;29;20124;-85
2022/08/30 11:32:58;;;;;;;0.75;0.40;;;22.90;62.30;;;;;;4889023;29;20788;-86
2022/08/30 11:35:48;;;;;;;1.42;0.40;;;23.00;62.80;;;;;;4876396;29;20029;-85
2022/08/30 11:38:45;;;;;;;1.00;0.50;;;23.00;62.10;;;;;;4902989;29;20031;-87
2022/08/30 11:41:27;;;;;;;0.95;0.43;;;23.00;62.70;;;;;;4884786;29;20276;-86
2022/08/30 11:43:54;;;;;;;1.55;0.70;;;23.10;62.20;;;;;;4896094;29;20132;-85
2022/08/30 11:46:26;;;;;;;1.38;0.35;;;23.40;61.50;;;;;;4895474;29;20009;-86
2022/08/30 11:49:11;;;;;;;2.08;0.50;;;23.30;60.40;;;;;;4887509;29;20032;-85
2022/08/30 11:52:14;;;;;;;1.77;0.60;;;23.60;61.40;;;;;;4892237;29;20029;-85
2022/08/30 11:55:10;;;;;;;0.93;0.40;;;23.60;58.80;;;;;;4891874;29;20490;-85
2022/08/30 11:57:51;;;;;;;1.35;0.40;;;23.60;59.30;;;;;;4881102;29;20025;-85
2022/08/30 12:00:38;;;;;;;0.57;0.40;;;23.50;59.40;;;;;;4886654;29;20037;-85
2022/08/30 12:03:29;;;;;;;2.30;0.50;;;23.70;59.00;;;;;;4898196;29;20048;-85
2022/08/30 12:05:59;;;;;;;;;;;23.60;58.90;;;;;;4882050;29;20377;-85
2022/08/30 12:08:39;;;;;;;0.73;0.50;;;23.90;57.60;;;;;;4882017;29;19919;-86
2022/08/30 12:11:09;;;;;;;0.68;0.43;;;24.30;58.40;;;;;;4887167;29;20037;-86
2022/08/30 12:13:37;;;;;;;1.60;0.50;;;24.30;54.30;;;;;;4889357;29;20028;-85
2022/08/30 12:16:19;;;;;;;2.33;0.47;;;24.10;55.70;;;;;;4886948;29;20036;-86
2022/08/30 12:18:47;;;;;;;2.90;0.50;;;24.00;55.40;;;;;;4888085;29;20052;-86
2022/08/30 12:21:19;;;;;;;1.35;0.50;;;24.60;55.00;;;;;;4905536;29;20032;-85
2022/08/30 12:24:08;;;;;;;0.52;0.40;;;25.10;53.10;;;;;;4891918;29;20060;-86
2022/08/30 12:26:39;;;;;;;0.65;0.30;;;26.10;52.40;;;;;;4893824;29;20080;-86
2022/08/30 12:29:10;;;;;;;1.25;0.40;;;26.20;50.70;;;;;;4891408;29;20029;-86
2022/08/30 12:31:58;;;;;;;0.63;0.30;;;26.40;50.00;;;;;;4893566;29;20115;-86
2022/08/30 12:34:51;;;;;;;1.15;0.45;;;25.60;50.80;;;;;;4893574;29;20440;-83
2022/08/30 12:37:35;;;;;;;1.02;0.40;;;26.00;50.60;;;;;;4900093;29;20036;-83
2022/08/30 12:40:09;;;;;;;3.20;0.60;;;25.70;49.90;;;;;;4893862;29;20033;-83
2022/08/30 12:42:40;;;;;;;1.95;0.52;;;25.40;51.60;;;;;;4894067;29;20053;-83
2022/08/30 12:45:11;;;;;;;1.63;0.57;;;25.80;52.80;;;;;;4886561;29;20136;-86
2022/08/30 12:47:51;;;;;;;1.17;0.40;;;27.00;49.50;;;;;;4887079;29;20039;-83
2022/08/30 12:50:23;;;;;;;0.77;0.30;;;27.60;47.00;;;;;;4890899;29;20504;-83
2022/08/30 12:53:11;;;;;;;1.85;0.47;;;27.30;46.90;;;;;;4889781;29;20124;-83
2022/08/30 12:55:58;;;;;;;2.28;0.60;;;27.00;48.30;;;;;;4894228;29;20425;-84
2022/08/30 12:58:43;;;;;;;1.50;0.35;;;26.40;48.70;;;;;;4897267;29;20032;-84
2022/08/30 13:01:26;;;;;;;2.33;0.70;;;26.30;48.80;;;;;;4891455;29;20084;-84
2022/08/30 13:04:18;;;;;;;1.27;0.52;;;25.50;50.30;;;;;;4910756;29;20437;-84
2022/08/30 13:06:50;;;;;;;1.98;0.60;;;25.20;50.50;;;;;;4889339;29;20033;-84
2022/08/30 13:09:42;;;;;;;1.38;0.57;;;25.20;50.20;;;;;;4893170;29;20029;-84
2022/08/30 13:12:24;;;;;;;1.70;0.50;;;25.20;50.60;;;;;;4887265;29;20052;-85